sensor_id;sensor_type;location;lat;lon;timestamp;temperature;humidity
42031;DHT22;27709;52.036;5.906;2022-12-05T00:01:23;3.80;99.90
42031;DHT22;27709;52.036;5.906;2022-12-05T00:03:51;3.80;99.90
42031;DHT22;27709;52.036;5.906;2022-12-05T00:06:17;3.80;99.90
42031;DHT22;27709;52.036;5.906;2022-12-05T00:08:44;3.80;99.90
42031;DHT22;27709;52.036;5.906;2022-12-05T00:11:13;3.80;99.90
42031;DHT22;27709;52.036;5.906;2022-12-05T00:13:39;3.80;99.90
42031;DHT22;27709;52.036;5.906;2022-12-05T00:16:09;3.90;99.90
42031;DHT22;27709;52.036;5.906;2022-12-05T00:18:35;3.90;99.90
42031;DHT22;27709;52.036;5.906;2022-12-05T00:21:11;3.90;99.90
42031;DHT22;27709;52.036;5.906;2022-12-05T00:23:36;3.90;99.90
42031;DHT22;27709;52.036;5.906;2022-12-05T00:26:03;3.90;99.90
42031;DHT22;27709;52.036;5.906;2022-12-05T00:28:30;3.90;99.90
42031;DHT22;27709;52.036;5.906;2022-12-05T00:30:56;3.90;99.90
42031;DHT22;27709;52.036;5.906;2022-12-05T00:33:23;4.00;99.90
42031;DHT22;27709;52.036;5.906;2022-12-05T00:35:54;4.00;99.90
42031;DHT22;27709;52.036;5.906;2022-12-05T00:38:20;3.90;99.90
42031;DHT22;27709;52.036;5.906;2022-12-05T00:40:46;4.00;99.90
42031;DHT22;27709;52.036;5.906;2022-12-05T00:43:12;4.00;99.90
42031;DHT22;27709;52.036;5.906;2022-12-05T00:46:00;3.90;99.90
42031;DHT22;27709;52.036;5.906;2022-12-05T00:48:46;4.00;99.90
42031;DHT22;27709;52.036;5.906;2022-12-05T00:51:15;3.90;99.90
42031;DHT22;27709;52.036;5.906;2022-12-05T00:53:42;4.00;99.90
42031;DHT22;27709;52.036;5.906;2022-12-05T00:56:17;4.00;99.90
42031;DHT22;27709;52.036;5.906;2022-12-05T00:58:43;4.00;99.90
42031;DHT22;27709;52.036;5.906;2022-12-05T01:01:15;3.90;99.90
42031;DHT22;27709;52.036;5.906;2022-12-05T01:03:45;4.00;99.90
42031;DHT22;27709;52.036;5.906;2022-12-05T01:06:12;3.90;99.90
42031;DHT22;27709;52.036;5.906;2022-12-05T01:08:38;3.90;99.90
42031;DHT22;27709;52.036;5.906;2022-12-05T01:11:05;3.90;99.90
42031;DHT22;27709;52.036;5.906;2022-12-05T01:13:31;3.90;99.90
42031;DHT22;27709;52.036;5.906;2022-12-05T01:15:57;3.90;99.90
42031;DHT22;27709;52.036;5.906;2022-12-05T01:18:24;4.00;99.90
42031;DHT22;27709;52.036;5.906;2022-12-05T01:20:51;4.00;99.90
42031;DHT22;27709;52.036;5.906;2022-12-05T01:23:19;4.00;99.90
42031;DHT22;27709;52.036;5.906;2022-12-05T01:25:47;4.00;99.90
42031;DHT22;27709;52.036;5.906;2022-12-05T01:28:15;4.00;99.90
42031;DHT22;27709;52.036;5.906;2022-12-05T01:30:44;4.00;99.90
42031;DHT22;27709;52.036;5.906;2022-12-05T01:33:10;4.10;99.90
42031;DHT22;27709;52.036;5.906;2022-12-05T01:35:37;4.00;99.90
42031;DHT22;27709;52.036;5.906;2022-12-05T01:38:03;4.00;99.90
42031;DHT22;27709;52.036;5.906;2022-12-05T01:40:29;4.00;99.90
42031;DHT22;27709;52.036;5.906;2022-12-05T01:42:58;4.00;99.90
42031;DHT22;27709;52.036;5.906;2022-12-05T01:45:36;4.10;99.90
42031;DHT22;27709;52.036;5.906;2022-12-05T01:48:07;4.10;99.90
42031;DHT22;27709;52.036;5.906;2022-12-05T01:50:36;4.10;99.90
42031;DHT22;27709;52.036;5.906;2022-12-05T01:53:02;4.20;99.90
42031;DHT22;27709;52.036;5.906;2022-12-05T01:55:28;4.20;99.90
42031;DHT22;27709;52.036;5.906;2022-12-05T01:57:56;4.20;99.90
42031;DHT22;27709;52.036;5.906;2022-12-05T02:00:22;4.20;99.90
42031;DHT22;27709;52.036;5.906;2022-12-05T02:03:08;4.20;99.90
42031;DHT22;27709;52.036;5.906;2022-12-05T02:05:35;4.20;99.90
42031;DHT22;27709;52.036;5.906;2022-12-05T02:08:05;4.20;99.90
42031;DHT22;27709;52.036;5.906;2022-12-05T02:10:39;4.20;99.90
42031;DHT22;27709;52.036;5.906;2022-12-05T02:15:46;4.20;99.90
42031;DHT22;27709;52.036;5.906;2022-12-05T02:18:20;4.30;99.90
42031;DHT22;27709;52.036;5.906;2022-12-05T02:27:17;4.20;99.90
42031;DHT22;27709;52.036;5.906;2022-12-05T02:35:07;4.30;99.90
42031;DHT22;27709;52.036;5.906;2022-12-05T02:37:51;4.30;99.90
42031;DHT22;27709;52.036;5.906;2022-12-05T02:40:25;4.30;99.90
42031;DHT22;27709;52.036;5.906;2022-12-05T02:45:30;4.30;99.90
42031;DHT22;27709;52.036;5.906;2022-12-05T02:47:58;4.30;99.90
42031;DHT22;27709;52.036;5.906;2022-12-05T02:50:28;4.30;99.90
42031;DHT22;27709;52.036;5.906;2022-12-05T02:53:08;4.30;99.90
42031;DHT22;27709;52.036;5.906;2022-12-05T02:55:35;4.30;99.90
42031;DHT22;27709;52.036;5.906;2022-12-05T02:58:07;4.40;99.90
42031;DHT22;27709;52.036;5.906;2022-12-05T03:00:37;4.40;99.90
42031;DHT22;27709;52.036;5.906;2022-12-05T03:08:26;4.40;99.90
42031;DHT22;27709;52.036;5.906;2022-12-05T03:10:54;4.30;99.90
42031;DHT22;27709;52.036;5.906;2022-12-05T03:13:26;4.30;99.90
42031;DHT22;27709;52.036;5.906;2022-12-05T03:16:28;4.30;99.90
42031;DHT22;27709;52.036;5.906;2022-12-05T03:18:59;4.40;99.90
42031;DHT22;27709;52.036;5.906;2022-12-05T03:21:37;4.30;99.90
42031;DHT22;27709;52.036;5.906;2022-12-05T03:24:08;4.30;99.90
42031;DHT22;27709;52.036;5.906;2022-12-05T03:26:59;4.40;99.90
42031;DHT22;27709;52.036;5.906;2022-12-05T03:29:45;4.40;99.90
42031;DHT22;27709;52.036;5.906;2022-12-05T03:32:36;4.40;99.90
42031;DHT22;27709;52.036;5.906;2022-12-05T03:40:33;4.40;99.90
42031;DHT22;27709;52.036;5.906;2022-12-05T03:43:21;4.40;99.90
42031;DHT22;27709;52.036;5.906;2022-12-05T03:46:04;4.50;99.90
42031;DHT22;27709;52.036;5.906;2022-12-05T03:48:34;4.50;99.90
42031;DHT22;27709;52.036;5.906;2022-12-05T03:51:06;4.50;99.90
42031;DHT22;27709;52.036;5.906;2022-12-05T03:53:40;4.50;99.90
42031;DHT22;27709;52.036;5.906;2022-12-05T03:56:15;4.60;99.90
42031;DHT22;27709;52.036;5.906;2022-12-05T03:58:50;4.50;99.90
42031;DHT22;27709;52.036;5.906;2022-12-05T04:01:29;4.50;99.90
42031;DHT22;27709;52.036;5.906;2022-12-05T04:04:00;4.50;99.90
42031;DHT22;27709;52.036;5.906;2022-12-05T04:06:36;4.60;99.90
42031;DHT22;27709;52.036;5.906;2022-12-05T04:09:19;4.60;99.90
42031;DHT22;27709;52.036;5.906;2022-12-05T04:11:56;4.60;99.90
42031;DHT22;27709;52.036;5.906;2022-12-05T04:14:41;4.60;99.90
42031;DHT22;27709;52.036;5.906;2022-12-05T04:20:19;4.60;99.90
42031;DHT22;27709;52.036;5.906;2022-12-05T04:23:06;4.60;99.90
42031;DHT22;27709;52.036;5.906;2022-12-05T04:25:44;4.60;99.90
42031;DHT22;27709;52.036;5.906;2022-12-05T04:28:37;4.60;99.90
42031;DHT22;27709;52.036;5.906;2022-12-05T04:31:10;4.60;99.90
42031;DHT22;27709;52.036;5.906;2022-12-05T04:33:48;4.70;99.90
42031;DHT22;27709;52.036;5.906;2022-12-05T04:38:57;4.70;99.90
42031;DHT22;27709;52.036;5.906;2022-12-05T04:41:35;4.60;99.90
42031;DHT22;27709;52.036;5.906;2022-12-05T04:44:05;4.60;99.90
42031;DHT22;27709;52.036;5.906;2022-12-05T04:46:34;4.60;99.90
42031;DHT22;27709;52.036;5.906;2022-12-05T04:49:05;4.60;99.90
42031;DHT22;27709;52.036;5.906;2022-12-05T04:51:33;4.60;99.90
42031;DHT22;27709;52.036;5.906;2022-12-05T04:54:08;4.70;99.90
42031;DHT22;27709;52.036;5.906;2022-12-05T04:56:35;4.70;99.90
42031;DHT22;27709;52.036;5.906;2022-12-05T04:59:02;4.70;99.90
42031;DHT22;27709;52.036;5.906;2022-12-05T05:01:41;4.70;99.90
42031;DHT22;27709;52.036;5.906;2022-12-05T05:04:26;4.70;99.90
42031;DHT22;27709;52.036;5.906;2022-12-05T05:06:53;4.70;99.90
42031;DHT22;27709;52.036;5.906;2022-12-05T05:09:19;4.70;99.90
42031;DHT22;27709;52.036;5.906;2022-12-05T05:11:44;4.70;99.90
42031;DHT22;27709;52.036;5.906;2022-12-05T05:14:14;4.70;99.90
42031;DHT22;27709;52.036;5.906;2022-12-05T05:16:41;4.70;99.90
42031;DHT22;27709;52.036;5.906;2022-12-05T05:19:07;4.80;99.90
42031;DHT22;27709;52.036;5.906;2022-12-05T05:21:35;4.80;99.90
42031;DHT22;27709;52.036;5.906;2022-12-05T05:24:02;4.80;99.90
42031;DHT22;27709;52.036;5.906;2022-12-05T05:26:29;4.80;99.90
42031;DHT22;27709;52.036;5.906;2022-12-05T05:28:56;4.80;99.90
42031;DHT22;27709;52.036;5.906;2022-12-05T05:31:22;4.80;99.90
42031;DHT22;27709;52.036;5.906;2022-12-05T05:33:49;4.80;99.90
42031;DHT22;27709;52.036;5.906;2022-12-05T05:36:15;4.80;99.90
42031;DHT22;27709;52.036;5.906;2022-12-05T05:38:43;4.80;99.90
42031;DHT22;27709;52.036;5.906;2022-12-05T05:41:14;4.90;99.90
42031;DHT22;27709;52.036;5.906;2022-12-05T05:43:40;4.80;99.90
42031;DHT22;27709;52.036;5.906;2022-12-05T05:46:06;4.90;99.90
42031;DHT22;27709;52.036;5.906;2022-12-05T05:48:32;4.90;99.90
42031;DHT22;27709;52.036;5.906;2022-12-05T05:50:58;4.90;99.90
42031;DHT22;27709;52.036;5.906;2022-12-05T05:53:24;4.90;99.90
42031;DHT22;27709;52.036;5.906;2022-12-05T05:55:49;4.90;99.90
42031;DHT22;27709;52.036;5.906;2022-12-05T05:58:15;4.90;99.90
42031;DHT22;27709;52.036;5.906;2022-12-05T06:00:40;4.90;99.90
42031;DHT22;27709;52.036;5.906;2022-12-05T06:03:06;4.90;99.90
42031;DHT22;27709;52.036;5.906;2022-12-05T06:05:32;4.90;99.90
42031;DHT22;27709;52.036;5.906;2022-12-05T06:07:57;4.90;99.90
42031;DHT22;27709;52.036;5.906;2022-12-05T06:10:23;4.90;99.90
42031;DHT22;27709;52.036;5.906;2022-12-05T06:12:48;4.80;99.90
42031;DHT22;27709;52.036;5.906;2022-12-05T06:15:14;4.90;99.90
42031;DHT22;27709;52.036;5.906;2022-12-05T06:17:39;4.80;99.90
42031;DHT22;27709;52.036;5.906;2022-12-05T06:20:06;4.80;99.90
42031;DHT22;27709;52.036;5.906;2022-12-05T06:22:31;4.80;99.90
42031;DHT22;27709;52.036;5.906;2022-12-05T06:24:58;4.80;99.90
42031;DHT22;27709;52.036;5.906;2022-12-05T06:27:24;4.80;99.90
42031;DHT22;27709;52.036;5.906;2022-12-05T06:29:50;4.70;99.90
42031;DHT22;27709;52.036;5.906;2022-12-05T06:32:17;4.70;99.90
42031;DHT22;27709;52.036;5.906;2022-12-05T06:34:42;4.70;99.90
42031;DHT22;27709;52.036;5.906;2022-12-05T06:37:09;4.70;99.90
42031;DHT22;27709;52.036;5.906;2022-12-05T06:39:36;4.70;99.90
42031;DHT22;27709;52.036;5.906;2022-12-05T06:42:04;4.70;99.90
42031;DHT22;27709;52.036;5.906;2022-12-05T06:44:29;4.60;99.90
42031;DHT22;27709;52.036;5.906;2022-12-05T06:46:55;4.60;99.90
42031;DHT22;27709;52.036;5.906;2022-12-05T06:49:22;4.60;99.90
42031;DHT22;27709;52.036;5.906;2022-12-05T06:51:50;4.70;99.90
42031;DHT22;27709;52.036;5.906;2022-12-05T06:54:16;4.60;99.90
42031;DHT22;27709;52.036;5.906;2022-12-05T06:56:42;4.60;99.90
42031;DHT22;27709;52.036;5.906;2022-12-05T06:59:08;4.60;99.90
42031;DHT22;27709;52.036;5.906;2022-12-05T07:01:34;4.60;99.90
42031;DHT22;27709;52.036;5.906;2022-12-05T07:04:15;4.60;99.90
42031;DHT22;27709;52.036;5.906;2022-12-05T07:06:43;4.60;99.90
42031;DHT22;27709;52.036;5.906;2022-12-05T07:09:09;4.60;99.90
42031;DHT22;27709;52.036;5.906;2022-12-05T07:11:35;4.70;99.90
42031;DHT22;27709;52.036;5.906;2022-12-05T07:14:04;4.60;99.90
42031;DHT22;27709;52.036;5.906;2022-12-05T07:16:34;4.70;99.90
42031;DHT22;27709;52.036;5.906;2022-12-05T07:18:59;4.70;99.90
42031;DHT22;27709;52.036;5.906;2022-12-05T07:24:00;4.70;99.90
42031;DHT22;27709;52.036;5.906;2022-12-05T07:26:26;4.60;99.90
42031;DHT22;27709;52.036;5.906;2022-12-05T07:28:54;4.60;99.90
42031;DHT22;27709;52.036;5.906;2022-12-05T07:31:24;4.70;99.90
42031;DHT22;27709;52.036;5.906;2022-12-05T07:33:51;4.60;99.90
42031;DHT22;27709;52.036;5.906;2022-12-05T07:36:19;4.70;99.90
42031;DHT22;27709;52.036;5.906;2022-12-05T07:38:45;4.70;99.90
42031;DHT22;27709;52.036;5.906;2022-12-05T07:41:19;4.70;99.90
42031;DHT22;27709;52.036;5.906;2022-12-05T07:43:46;4.70;99.90
42031;DHT22;27709;52.036;5.906;2022-12-05T07:46:11;4.70;99.90
42031;DHT22;27709;52.036;5.906;2022-12-05T07:48:37;4.70;99.90
42031;DHT22;27709;52.036;5.906;2022-12-05T07:51:04;4.70;99.90
42031;DHT22;27709;52.036;5.906;2022-12-05T07:53:31;4.70;99.90
42031;DHT22;27709;52.036;5.906;2022-12-05T07:56:01;4.70;99.90
42031;DHT22;27709;52.036;5.906;2022-12-05T07:58:28;4.70;99.90
42031;DHT22;27709;52.036;5.906;2022-12-05T08:00:53;4.70;99.90
42031;DHT22;27709;52.036;5.906;2022-12-05T08:03:19;4.70;99.90
42031;DHT22;27709;52.036;5.906;2022-12-05T08:05:46;4.70;99.90
42031;DHT22;27709;52.036;5.906;2022-12-05T08:08:11;4.80;99.90
42031;DHT22;27709;52.036;5.906;2022-12-05T08:10:37;4.80;99.90
42031;DHT22;27709;52.036;5.906;2022-12-05T08:13:03;4.80;99.90
42031;DHT22;27709;52.036;5.906;2022-12-05T08:15:28;4.80;99.90
42031;DHT22;27709;52.036;5.906;2022-12-05T08:17:54;4.80;99.90
42031;DHT22;27709;52.036;5.906;2022-12-05T08:20:19;4.80;99.90
42031;DHT22;27709;52.036;5.906;2022-12-05T08:22:46;4.80;99.90
42031;DHT22;27709;52.036;5.906;2022-12-05T08:27:50;4.80;99.90
42031;DHT22;27709;52.036;5.906;2022-12-05T08:32:56;4.80;99.90
42031;DHT22;27709;52.036;5.906;2022-12-05T08:35:22;4.90;99.90
42031;DHT22;27709;52.036;5.906;2022-12-05T08:37:48;4.90;99.90
42031;DHT22;27709;52.036;5.906;2022-12-05T08:40:13;4.90;99.90
42031;DHT22;27709;52.036;5.906;2022-12-05T08:42:39;4.90;99.90
42031;DHT22;27709;52.036;5.906;2022-12-05T08:45:31;4.90;99.90
42031;DHT22;27709;52.036;5.906;2022-12-05T08:50:32;4.90;99.90
42031;DHT22;27709;52.036;5.906;2022-12-05T08:52:57;5.00;99.90
42031;DHT22;27709;52.036;5.906;2022-12-05T08:55:25;5.00;99.90
42031;DHT22;27709;52.036;5.906;2022-12-05T08:58:06;5.00;99.90
42031;DHT22;27709;52.036;5.906;2022-12-05T09:00:32;5.00;99.90
42031;DHT22;27709;52.036;5.906;2022-12-05T09:02:57;5.00;99.90
42031;DHT22;27709;52.036;5.906;2022-12-05T09:05:24;5.00;99.90
42031;DHT22;27709;52.036;5.906;2022-12-05T09:07:49;5.00;99.90
42031;DHT22;27709;52.036;5.906;2022-12-05T09:10:17;5.00;99.90
42031;DHT22;27709;52.036;5.906;2022-12-05T09:12:43;5.00;99.90
42031;DHT22;27709;52.036;5.906;2022-12-05T09:15:10;5.00;99.90
42031;DHT22;27709;52.036;5.906;2022-12-05T09:17:36;5.00;99.90
42031;DHT22;27709;52.036;5.906;2022-12-05T09:20:03;5.00;99.90
42031;DHT22;27709;52.036;5.906;2022-12-05T09:22:29;5.00;99.90
42031;DHT22;27709;52.036;5.906;2022-12-05T09:24:54;5.00;99.90
42031;DHT22;27709;52.036;5.906;2022-12-05T09:27:20;5.00;99.90
42031;DHT22;27709;52.036;5.906;2022-12-05T09:29:45;5.00;99.90
42031;DHT22;27709;52.036;5.906;2022-12-05T09:32:11;5.00;99.90
42031;DHT22;27709;52.036;5.906;2022-12-05T09:34:37;5.00;99.90
42031;DHT22;27709;52.036;5.906;2022-12-05T09:37:06;5.10;99.90
42031;DHT22;27709;52.036;5.906;2022-12-05T09:39:32;5.10;99.90
42031;DHT22;27709;52.036;5.906;2022-12-05T09:42:14;5.10;99.90
42031;DHT22;27709;52.036;5.906;2022-12-05T09:50:18;5.20;99.90
42031;DHT22;27709;52.036;5.906;2022-12-05T09:53:06;5.20;99.90
42031;DHT22;27709;52.036;5.906;2022-12-05T09:55:56;5.20;99.90
42031;DHT22;27709;52.036;5.906;2022-12-05T09:58:29;5.20;99.90
42031;DHT22;27709;52.036;5.906;2022-12-05T10:03:42;5.30;99.90
42031;DHT22;27709;52.036;5.906;2022-12-05T10:06:25;5.30;99.90
42031;DHT22;27709;52.036;5.906;2022-12-05T10:17:27;5.30;99.90
42031;DHT22;27709;52.036;5.906;2022-12-05T10:19:58;5.40;99.90
42031;DHT22;27709;52.036;5.906;2022-12-05T10:22:29;5.40;99.90
42031;DHT22;27709;52.036;5.906;2022-12-05T10:25:02;5.40;99.90
42031;DHT22;27709;52.036;5.906;2022-12-05T10:27:44;5.40;99.90
42031;DHT22;27709;52.036;5.906;2022-12-05T10:30:14;5.40;99.90
42031;DHT22;27709;52.036;5.906;2022-12-05T10:35:19;5.40;99.90
42031;DHT22;27709;52.036;5.906;2022-12-05T10:37:47;5.40;99.90
42031;DHT22;27709;52.036;5.906;2022-12-05T10:40:14;5.40;99.90
42031;DHT22;27709;52.036;5.906;2022-12-05T10:42:41;5.40;99.90
42031;DHT22;27709;52.036;5.906;2022-12-05T10:45:18;5.40;99.90
42031;DHT22;27709;52.036;5.906;2022-12-05T10:47:45;5.40;99.90
42031;DHT22;27709;52.036;5.906;2022-12-05T10:50:23;5.40;99.90
42031;DHT22;27709;52.036;5.906;2022-12-05T10:52:51;5.40;99.90
42031;DHT22;27709;52.036;5.906;2022-12-05T10:55:17;5.40;99.90
42031;DHT22;27709;52.036;5.906;2022-12-05T10:57:50;5.40;99.90
42031;DHT22;27709;52.036;5.906;2022-12-05T11:00:21;5.40;99.90
42031;DHT22;27709;52.036;5.906;2022-12-05T11:02:47;5.40;99.90
42031;DHT22;27709;52.036;5.906;2022-12-05T11:05:13;5.40;99.90
42031;DHT22;27709;52.036;5.906;2022-12-05T11:10:39;5.50;99.90
42031;DHT22;27709;52.036;5.906;2022-12-05T11:13:24;5.50;99.90
42031;DHT22;27709;52.036;5.906;2022-12-05T11:15:50;5.60;99.90
42031;DHT22;27709;52.036;5.906;2022-12-05T11:18:32;5.60;99.90
42031;DHT22;27709;52.036;5.906;2022-12-05T11:21:10;5.60;99.90
42031;DHT22;27709;52.036;5.906;2022-12-05T11:23:36;5.60;99.90
42031;DHT22;27709;52.036;5.906;2022-12-05T11:26:02;5.60;99.90
42031;DHT22;27709;52.036;5.906;2022-12-05T11:28:35;5.70;99.90
42031;DHT22;27709;52.036;5.906;2022-12-05T11:33:34;5.70;99.90
42031;DHT22;27709;52.036;5.906;2022-12-05T11:36:17;5.80;99.90
42031;DHT22;27709;52.036;5.906;2022-12-05T11:38:45;5.70;99.90
42031;DHT22;27709;52.036;5.906;2022-12-05T11:44:38;5.80;99.90
42031;DHT22;27709;52.036;5.906;2022-12-05T12:03:28;6.00;99.90
42031;DHT22;27709;52.036;5.906;2022-12-05T12:08:28;6.00;99.90
42031;DHT22;27709;52.036;5.906;2022-12-05T12:11:11;6.00;99.90
42031;DHT22;27709;52.036;5.906;2022-12-05T12:25:02;6.10;99.90
42031;DHT22;27709;52.036;5.906;2022-12-05T12:30:27;6.10;99.90
42031;DHT22;27709;52.036;5.906;2022-12-05T12:33:04;6.10;99.90
42031;DHT22;27709;52.036;5.906;2022-12-05T12:35:50;6.10;99.90
42031;DHT22;27709;52.036;5.906;2022-12-05T12:40:54;6.20;99.90
42031;DHT22;27709;52.036;5.906;2022-12-05T12:49:30;6.20;99.90
42031;DHT22;27709;52.036;5.906;2022-12-05T12:52:08;6.20;99.90
42031;DHT22;27709;52.036;5.906;2022-12-05T12:54:47;6.20;99.90
42031;DHT22;27709;52.036;5.906;2022-12-05T12:57:25;6.20;99.90
42031;DHT22;27709;52.036;5.906;2022-12-05T13:02:38;6.10;99.90
42031;DHT22;27709;52.036;5.906;2022-12-05T13:05:26;6.10;99.90
42031;DHT22;27709;52.036;5.906;2022-12-05T13:08:02;6.10;99.90
42031;DHT22;27709;52.036;5.906;2022-12-05T13:10:45;6.00;99.90
42031;DHT22;27709;52.036;5.906;2022-12-05T13:13:17;6.00;99.90
42031;DHT22;27709;52.036;5.906;2022-12-05T13:15:50;6.00;99.90
42031;DHT22;27709;52.036;5.906;2022-12-05T13:18:21;6.10;99.90
42031;DHT22;27709;52.036;5.906;2022-12-05T13:20:52;6.10;99.90
42031;DHT22;27709;52.036;5.906;2022-12-05T13:23:31;6.10;99.90
42031;DHT22;27709;52.036;5.906;2022-12-05T13:25:58;6.10;99.90
42031;DHT22;27709;52.036;5.906;2022-12-05T13:28:35;6.10;99.90
42031;DHT22;27709;52.036;5.906;2022-12-05T13:31:07;6.20;99.90
42031;DHT22;27709;52.036;5.906;2022-12-05T13:33:40;6.20;99.90
42031;DHT22;27709;52.036;5.906;2022-12-05T13:36:12;6.30;99.90
42031;DHT22;27709;52.036;5.906;2022-12-05T13:39:06;6.20;99.90
42031;DHT22;27709;52.036;5.906;2022-12-05T13:41:59;6.20;99.90
42031;DHT22;27709;52.036;5.906;2022-12-05T13:44:47;6.20;99.90
42031;DHT22;27709;52.036;5.906;2022-12-05T13:50:13;6.20;99.90
42031;DHT22;27709;52.036;5.906;2022-12-05T13:52:48;6.30;99.90
42031;DHT22;27709;52.036;5.906;2022-12-05T13:55:29;6.30;99.90
42031;DHT22;27709;52.036;5.906;2022-12-05T13:58:00;6.30;99.90
42031;DHT22;27709;52.036;5.906;2022-12-05T14:00:33;6.30;99.90
42031;DHT22;27709;52.036;5.906;2022-12-05T14:03:01;6.20;99.90
42031;DHT22;27709;52.036;5.906;2022-12-05T14:05:43;6.30;99.90
42031;DHT22;27709;52.036;5.906;2022-12-05T14:18:57;6.30;99.90
42031;DHT22;27709;52.036;5.906;2022-12-05T14:27:55;6.30;99.90
42031;DHT22;27709;52.036;5.906;2022-12-05T14:30:28;6.30;99.90
42031;DHT22;27709;52.036;5.906;2022-12-05T14:33:00;6.20;99.90
42031;DHT22;27709;52.036;5.906;2022-12-05T14:35:50;6.20;99.90
42031;DHT22;27709;52.036;5.906;2022-12-05T14:38:29;6.20;99.90
42031;DHT22;27709;52.036;5.906;2022-12-05T14:40:56;6.20;99.90
42031;DHT22;27709;52.036;5.906;2022-12-05T14:43:36;6.10;99.90
42031;DHT22;27709;52.036;5.906;2022-12-05T14:46:05;6.10;99.90
42031;DHT22;27709;52.036;5.906;2022-12-05T14:48:40;6.10;99.90
42031;DHT22;27709;52.036;5.906;2022-12-05T14:53:54;6.10;99.90
42031;DHT22;27709;52.036;5.906;2022-12-05T14:56:27;6.10;99.90
42031;DHT22;27709;52.036;5.906;2022-12-05T14:59:01;6.00;99.90
42031;DHT22;27709;52.036;5.906;2022-12-05T15:04:30;6.00;99.90
42031;DHT22;27709;52.036;5.906;2022-12-05T15:09:51;6.00;99.90
42031;DHT22;27709;52.036;5.906;2022-12-05T15:12:22;6.10;99.90
42031;DHT22;27709;52.036;5.906;2022-12-05T15:15:04;6.10;99.90
42031;DHT22;27709;52.036;5.906;2022-12-05T15:17:38;6.10;99.90
42031;DHT22;27709;52.036;5.906;2022-12-05T15:20:13;6.00;99.90
42031;DHT22;27709;52.036;5.906;2022-12-05T15:22:40;6.00;99.90
42031;DHT22;27709;52.036;5.906;2022-12-05T15:25:21;6.00;99.90
42031;DHT22;27709;52.036;5.906;2022-12-05T15:28:17;6.00;99.90
42031;DHT22;27709;52.036;5.906;2022-12-05T15:30:42;6.10;99.90
42031;DHT22;27709;52.036;5.906;2022-12-05T15:33:12;6.00;99.90
42031;DHT22;27709;52.036;5.906;2022-12-05T15:35:38;6.00;99.90
42031;DHT22;27709;52.036;5.906;2022-12-05T15:38:13;6.00;99.90
42031;DHT22;27709;52.036;5.906;2022-12-05T15:40:44;6.00;99.90
42031;DHT22;27709;52.036;5.906;2022-12-05T15:43:30;6.00;99.90
42031;DHT22;27709;52.036;5.906;2022-12-05T15:46:08;6.00;99.90
42031;DHT22;27709;52.036;5.906;2022-12-05T15:48:33;6.00;99.90
42031;DHT22;27709;52.036;5.906;2022-12-05T15:51:00;6.00;99.90
42031;DHT22;27709;52.036;5.906;2022-12-05T15:53:31;6.00;99.90
42031;DHT22;27709;52.036;5.906;2022-12-05T15:59:20;6.00;99.90
42031;DHT22;27709;52.036;5.906;2022-12-05T16:01:59;6.00;99.90
42031;DHT22;27709;52.036;5.906;2022-12-05T16:04:40;6.00;99.90
42031;DHT22;27709;52.036;5.906;2022-12-05T16:07:08;6.00;99.90
42031;DHT22;27709;52.036;5.906;2022-12-05T16:09:39;5.90;99.90
42031;DHT22;27709;52.036;5.906;2022-12-05T16:12:18;5.90;99.90
42031;DHT22;27709;52.036;5.906;2022-12-05T16:14:49;6.00;99.90
42031;DHT22;27709;52.036;5.906;2022-12-05T16:17:15;5.90;99.90
42031;DHT22;27709;52.036;5.906;2022-12-05T16:19:41;5.90;99.90
42031;DHT22;27709;52.036;5.906;2022-12-05T16:24:44;5.90;99.90
42031;DHT22;27709;52.036;5.906;2022-12-05T16:27:30;5.90;99.90
42031;DHT22;27709;52.036;5.906;2022-12-05T16:30:19;6.00;99.90
42031;DHT22;27709;52.036;5.906;2022-12-05T16:32:46;5.90;99.90
42031;DHT22;27709;52.036;5.906;2022-12-05T16:38:12;6.00;99.90
42031;DHT22;27709;52.036;5.906;2022-12-05T16:40:50;5.90;99.90
42031;DHT22;27709;52.036;5.906;2022-12-05T16:43:28;6.00;99.90
42031;DHT22;27709;52.036;5.906;2022-12-05T16:48:44;5.90;99.90
42031;DHT22;27709;52.036;5.906;2022-12-05T16:51:19;5.90;99.90
42031;DHT22;27709;52.036;5.906;2022-12-05T16:53:48;5.90;99.90
42031;DHT22;27709;52.036;5.906;2022-12-05T16:58:48;5.90;99.90
42031;DHT22;27709;52.036;5.906;2022-12-05T17:01:23;5.90;99.90
42031;DHT22;27709;52.036;5.906;2022-12-05T17:03:49;6.00;99.90
42031;DHT22;27709;52.036;5.906;2022-12-05T17:06:16;6.00;99.90
42031;DHT22;27709;52.036;5.906;2022-12-05T17:08:49;6.00;99.90
42031;DHT22;27709;52.036;5.906;2022-12-05T17:11:23;6.00;99.90
42031;DHT22;27709;52.036;5.906;2022-12-05T17:13:51;6.00;99.90
42031;DHT22;27709;52.036;5.906;2022-12-05T17:16:18;6.00;99.90
42031;DHT22;27709;52.036;5.906;2022-12-05T17:18:45;6.00;99.90
42031;DHT22;27709;52.036;5.906;2022-12-05T17:21:19;6.00;99.90
42031;DHT22;27709;52.036;5.906;2022-12-05T17:23:46;6.00;99.90
42031;DHT22;27709;52.036;5.906;2022-12-05T17:26:13;6.00;99.90
42031;DHT22;27709;52.036;5.906;2022-12-05T17:28:39;6.00;99.90
42031;DHT22;27709;52.036;5.906;2022-12-05T17:31:05;6.00;99.90
42031;DHT22;27709;52.036;5.906;2022-12-05T17:33:31;6.00;99.90
42031;DHT22;27709;52.036;5.906;2022-12-05T17:35:57;6.00;99.90
42031;DHT22;27709;52.036;5.906;2022-12-05T17:38:22;6.00;99.90
42031;DHT22;27709;52.036;5.906;2022-12-05T17:40:48;6.00;99.90
42031;DHT22;27709;52.036;5.906;2022-12-05T17:43:14;6.00;99.90
42031;DHT22;27709;52.036;5.906;2022-12-05T17:45:41;5.90;99.90
42031;DHT22;27709;52.036;5.906;2022-12-05T17:48:13;5.90;99.90
42031;DHT22;27709;52.036;5.906;2022-12-05T17:50:40;5.90;99.90
42031;DHT22;27709;52.036;5.906;2022-12-05T17:53:12;5.90;99.90
42031;DHT22;27709;52.036;5.906;2022-12-05T17:55:38;5.90;99.90
42031;DHT22;27709;52.036;5.906;2022-12-05T17:58:03;5.90;99.90
42031;DHT22;27709;52.036;5.906;2022-12-05T18:00:29;6.00;99.90
42031;DHT22;27709;52.036;5.906;2022-12-05T18:02:54;6.00;99.90
42031;DHT22;27709;52.036;5.906;2022-12-05T18:05:20;6.00;99.90
42031;DHT22;27709;52.036;5.906;2022-12-05T18:07:47;6.00;99.90
42031;DHT22;27709;52.036;5.906;2022-12-05T18:10:19;6.00;99.90
42031;DHT22;27709;52.036;5.906;2022-12-05T18:12:46;6.00;99.90
42031;DHT22;27709;52.036;5.906;2022-12-05T18:15:13;6.00;99.90
42031;DHT22;27709;52.036;5.906;2022-12-05T18:17:38;6.00;99.90
42031;DHT22;27709;52.036;5.906;2022-12-05T18:20:06;5.90;99.90
42031;DHT22;27709;52.036;5.906;2022-12-05T18:22:32;6.00;99.90
42031;DHT22;27709;52.036;5.906;2022-12-05T18:24:57;6.00;99.90
42031;DHT22;27709;52.036;5.906;2022-12-05T18:27:24;6.00;99.90
42031;DHT22;27709;52.036;5.906;2022-12-05T18:29:50;6.00;99.90
42031;DHT22;27709;52.036;5.906;2022-12-05T18:32:17;6.00;99.90
42031;DHT22;27709;52.036;5.906;2022-12-05T18:34:43;6.00;99.90
42031;DHT22;27709;52.036;5.906;2022-12-05T18:37:09;6.00;99.90
42031;DHT22;27709;52.036;5.906;2022-12-05T18:39:35;6.00;99.90
42031;DHT22;27709;52.036;5.906;2022-12-05T18:42:01;6.00;99.90
42031;DHT22;27709;52.036;5.906;2022-12-05T18:44:27;6.00;99.90
42031;DHT22;27709;52.036;5.906;2022-12-05T18:46:53;6.00;99.90